KHUA/HUA METAR and TAF weather

Enter ICAO airport designator
Station Type Date Time Source
KHUA METAR 2020/09/22 22:58 UTC NOAA

KHUA 222258Z AUTO 18003KT 9SM OVC130 20/11 A3013 RMK AO2 SLP201 T02040108


Station Type Date Time Source
KHUA Decoded METAR 2020/09/22 22:58 UTC NOAA

Station name not available
Sep 22, 2020 - 06:58 PM EDT / 2020.09.22 2258 UTC
Wind: from the S (180 degrees) at 3 MPH (3 KT):0
Visibility: 9 mile(s):0
Sky conditions: overcast
Temperature: 68.7 F (20.4 C)
Dew Point: 51.4 F (10.8 C)
Relative Humidity: 54%
Pressure (altimeter): 30.13 in. Hg (1020 hPa)
ob: KHUA 222258Z AUTO 18003KT 9SM OVC130 20/11 A3013 RMK AO2 SLP201 T02040108
cycle: 23

Station Type Date Time Source
KHUA TAF UTC NOAA

Error!

Example: see airport list